Unsere Flugzeuge

CESSNA 172 SP NXI

D-E
Garmin G1000 IFR
Bj. 
180 PS

 

 

 

 

 

 

 

 

 

 

 

 

 

 

Flugwetter Augsburg

[source: ADDS]
METAR
EDMA 151150Z 28005KT 240V330 9999 FEW020 BKN060 BKN069 18/12 Q1015 =
TAF EDMA 151100Z 1512/1521 27007KT 9999 SCT020 TEMPO 1512/1518 SHRA BKN012CB BECMG 1519/1521 VRB03KT
TAF
TAF EDMA 151100Z 1512/1521 27007KT 9999 SCT020 TEMPO 1512/1518 SHRA BKN012CB BECMG 1519/1521 VRB03KT =
Cookies erleichtern die Bereitstellung unserer Dienste. Mit der Nutzung unserer Dienste erklären Sie sich damit einverstanden, dass wir Cookies verwenden.
Weitere Informationen Ok